La rose des vents
Donnes mto: Semaine 12/03/07 - 18/03/07 (S 11)
Date Horaire Temp. E. Hum. E. P.atmo. Pluie Vent 1mn Direction Ensoleilleme Ev.Tr. Solaire P. de rose Temp au vent Rafales
12/03/2007 00:00 9,5 C 40 % 1024,6 hPa 0,0 l/m 6,2 km/h (2 Bft) NO 0,00 h 0,076 mm 0 W/m -3,3 C 8,9 C 8,6 km/h (2 Bft)
12/03/2007 01:00 9,6 C 41 % 1024,0 hPa 0,0 l/m 7,9 km/h (2 Bft) O 0,00 h 0,076 mm 0 W/m -3,0 C 8,6 C 11,6 km/h (2 Bft)
12/03/2007 02:00 9,6 C 43 % 1023,7 hPa 0,0 l/m 4,5 km/h (1 Bft) NO 0,00 h 0,076 mm 0 W/m -2,3 C 9,2 C 6,6 km/h (2 Bft)
12/03/2007 03:00 9,7 C 44 % 1022,9 hPa 0,0 l/m 7,5 km/h (2 Bft) O-NO 0,00 h 0,051 mm 0 W/m -2,1 C 8,8 C 10,6 km/h (2 Bft)
12/03/2007 04:00 9,4 C 46 % 1022,5 hPa 0,0 l/m 7,7 km/h (2 Bft) O-NO 0,00 h 0,076 mm 0 W/m -1,6 C 8,4 C 10,7 km/h (2 Bft)
12/03/2007 05:00 9,0 C 49 % 1022,4 hPa 0,0 l/m 9,2 km/h (2 Bft) O-NO 0,00 h 0,076 mm 0 W/m -1,3 C 7,6 C 12,9 km/h (3 Bft)
12/03/2007 06:00 8,7 C 50 % 1022,6 hPa 0,0 l/m 5,9 km/h (2 Bft) NO 0,00 h 0,076 mm 8 W/m -1,3 C 7,9 C 9,3 km/h (2 Bft)
12/03/2007 07:00 9,3 C 48 % 1022,8 hPa 0,0 l/m 4,1 km/h (1 Bft) O-NO 0,12 h 0,051 mm 44 W/m -1,1 C 8,8 C 6,6 km/h (2 Bft)
12/03/2007 08:00 10,2 C 49 % 1023,3 hPa 0,0 l/m 1,8 km/h (1 Bft) O-NO 0,02 h 0,051 mm 125 W/m -0,1 C 10,2 C 2,9 km/h (1 Bft)
12/03/2007 09:00 13,5 C 41 % 1023,1 hPa 0,0 l/m 2,6 km/h (1 Bft) O-NO 0,65 h 0,076 mm 362 W/m 0,3 C 13,5 C 4,5 km/h (1 Bft)
12/03/2007 10:00 15,7 C 37 % 1023,4 hPa 0,0 l/m 8,4 km/h (2 Bft) S 1,00 h 0,203 mm 557 W/m 1,1 C 15,7 C 12,8 km/h (3 Bft)
12/03/2007 11:00 16,7 C 31 % 1023,4 hPa 0,0 l/m 14,4 km/h (3 Bft) S-SO 1,00 h 0,356 mm 708 W/m -0,6 C 16,7 C 19,5 km/h (3 Bft)
12/03/2007 12:00 16,9 C 30 % 1023,2 hPa 0,0 l/m 11,8 km/h (2 Bft) S-SE 0,98 h 0,508 mm 624 W/m -0,9 C 16,9 C 17,2 km/h (3 Bft)
12/03/2007 13:00 17,4 C 29 % 1022,6 hPa 0,0 l/m 7,9 km/h (2 Bft) S 1,00 h 0,457 mm 642 W/m -0,6 C 17,4 C 12,7 km/h (3 Bft)
12/03/2007 14:00 18,0 C 27 % 1022,4 hPa 0,0 l/m 6,3 km/h (2 Bft) E 1,00 h 0,432 mm 575 W/m -1,2 C 18,0 C 11,2 km/h (2 Bft)
12/03/2007 15:00 17,0 C 30 % 1022,4 hPa 0,0 l/m 4,4 km/h (1 Bft) SE 1,00 h 0,381 mm 433 W/m -0,6 C 17,0 C 8,3 km/h (2 Bft)
12/03/2007 16:00 16,6 C 33 % 1022,4 hPa 0,0 l/m 2,0 km/h (1 Bft) SE 0,83 h 0,279 mm 246 W/m 0,2 C 16,6 C 4,1 km/h (1 Bft)
12/03/2007 17:00 15,6 C 35 % 1022,5 hPa 0,0 l/m 0,7 km/h (0 Bft) S-SE 0,33 h 0,152 mm 93 W/m -0,0 C 15,6 C 1,8 km/h (1 Bft)
12/03/2007 18:00 14,0 C 35 % 1022,9 hPa 0,0 l/m 4,1 km/h (1 Bft) SO 0,02 h 0,076 mm 15 W/m -1,0 C 14,0 C 5,2 km/h (1 Bft)
12/03/2007 19:00 12,8 C 36 % 1023,3 hPa 0,0 l/m 5,2 km/h (1 Bft) O-NO 0,00 h 0,051 mm 0 W/m -1,7 C 12,8 C 7,0 km/h (2 Bft)
12/03/2007 20:00 11,4 C 42 % 1023,6 hPa 0,0 l/m 3,2 km/h (1 Bft) O-NO 0,00 h 0,076 mm 0 W/m -1,2 C 11,4 C 5,5 km/h (1 Bft)
12/03/2007 21:00 10,7 C 44 % 1023,6 hPa 0,0 l/m 3,1 km/h (1 Bft) O-NO 0,00 h 0,051 mm 0 W/m -1,1 C 10,7 C 5,1 km/h (1 Bft)
12/03/2007 22:00 10,4 C 44 % 1023,6 hPa 0,0 l/m 3,9 km/h (1 Bft) O-NO 0,00 h 0,051 mm 0 W/m -1,3 C 10,4 C 5,9 km/h (2 Bft)
12/03/2007 23:00 9,9 C 46 % 1023,5 hPa 0,0 l/m 7,7 km/h (2 Bft) O-NO 0,00 h 0,051 mm 0 W/m -1,1 C 9,4 C 10,8 km/h (2 Bft)
13/03/2007 00:00 10,0 C 48 % 1023,5 hPa 0,0 l/m 10,8 km/h (2 Bft) O-NO 0,00 h 0,076 mm 0 W/m -0,5 C 9,2 C 15,0 km/h (3 Bft)
13/03/2007 01:00 9,8 C 49 % 1023,4 hPa 0,0 l/m 11,1 km/h (2 Bft) O-NO 0,00 h 0,076 mm 0 W/m -0,4 C 8,2 C 14,9 km/h (3 Bft)
13/03/2007 02:00 9,5 C 49 % 1023,4 hPa 0,0 l/m 10,0 km/h (2 Bft) O-NO 0,00 h 0,076 mm 0 W/m -0,5 C 8,1 C 13,8 km/h (3 Bft)
13/03/2007 03:00 9,6 C 47 % 1023,1 hPa 0,0 l/m 6,9 km/h (2 Bft) O-NO 0,00 h 0,076 mm 0 W/m -1,1 C 8,8 C 10,2 km/h (2 Bft)
13/03/2007 04:00 9,0 C 47 % 1023,1 hPa 0,0 l/m 3,6 km/h (1 Bft) NO 0,00 h 0,076 mm 0 W/m -1,6 C 8,9 C 5,5 km/h (1 Bft)
13/03/2007 05:00 9,5 C 44 % 1023,1 hPa 0,0 l/m 4,1 km/h (1 Bft) O-NO 0,00 h 0,051 mm 0 W/m -2,0 C 9,4 C 5,4 km/h (1 Bft)
13/03/2007 06:00 9,6 C 43 % 1023,4 hPa 0,0 l/m 3,3 km/h (1 Bft) O-NO 0,03 h 0,051 mm 9 W/m -2,4 C 9,4 C 4,6 km/h (1 Bft)
13/03/2007 07:00 9,6 C 44 % 1023,8 hPa 0,0 l/m 3,2 km/h (1 Bft) O-NO 0,25 h 0,025 mm 55 W/m -2,1 C 9,6 C 4,6 km/h (1 Bft)
13/03/2007 08:00 12,2 C 40 % 1024,1 hPa 0,0 l/m 0,2 km/h (0 Bft) NO 1,00 h 0,051 mm 235 W/m -1,0 C 12,2 C 0,9 km/h (0 Bft)
13/03/2007 09:00 14,2 C 39 % 1024,1 hPa 0,0 l/m 1,0 km/h (0 Bft) E-SE 1,00 h 0,127 mm 405 W/m 0,6 C 14,2 C 2,3 km/h (1 Bft)
13/03/2007 10:00 16,6 C 38 % 1024,2 hPa 0,0 l/m 3,2 km/h (1 Bft) E-SE 1,00 h 0,229 mm 539 W/m 2,1 C 16,6 C 6,1 km/h (2 Bft)
13/03/2007 11:00 17,6 C 44 % 1024,0 hPa 0,0 l/m 6,0 km/h (2 Bft) E 1,00 h 0,330 mm 636 W/m 5,0 C 17,6 C 8,9 km/h (2 Bft)
13/03/2007 12:00 17,8 C 52 % 1023,9 hPa 0,0 l/m 8,4 km/h (2 Bft) E 1,00 h 0,406 mm 680 W/m 7,7 C 17,8 C 12,0 km/h (2 Bft)
13/03/2007 13:00 19,1 C 48 % 1023,3 hPa 0,0 l/m 6,4 km/h (2 Bft) E-NE 1,00 h 0,432 mm 659 W/m 7,8 C 19,1 C 10,0 km/h (2 Bft)
13/03/2007 14:00 19,0 C 42 % 1022,9 hPa 0,0 l/m 8,9 km/h (2 Bft) S-SE 1,00 h 0,432 mm 582 W/m 5,6 C 19,0 C 13,9 km/h (3 Bft)
13/03/2007 15:00 19,0 C 41 % 1022,7 hPa 0,0 l/m 5,2 km/h (1 Bft) S-SE 1,00 h 0,406 mm 455 W/m 5,4 C 19,0 C 8,4 km/h (2 Bft)
13/03/2007 16:00 18,2 C 43 % 1022,5 hPa 0,0 l/m 4,4 km/h (1 Bft) SE 1,00 h 0,305 mm 295 W/m 5,3 C 18,2 C 7,0 km/h (2 Bft)
13/03/2007 17:00 17,1 C 46 % 1022,8 hPa 0,0 l/m 3,4 km/h (1 Bft) N-NE 0,82 h 0,203 mm 124 W/m 5,3 C 17,1 C 6,2 km/h (2 Bft)
13/03/2007 18:00 14,0 C 58 % 1023,1 hPa 0,0 l/m 6,1 km/h (2 Bft) N-NE 0,00 h 0,102 mm 17 W/m 5,9 C 14,0 C 9,0 km/h (2 Bft)
13/03/2007 19:00 12,0 C 65 % 1023,6 hPa 0,0 l/m 3,0 km/h (1 Bft) N-NE 0,00 h 0,051 mm 0 W/m 5,7 C 12,0 C 5,0 km/h (1 Bft)
13/03/2007 20:00 11,5 C 64 % 1023,5 hPa 0,0 l/m 1,5 km/h (1 Bft) N-NE 0,00 h 0,025 mm 0 W/m 4,9 C 11,5 C 2,8 km/h (1 Bft)
13/03/2007 21:00 11,9 C 62 % 1023,2 hPa 0,0 l/m 3,9 km/h (1 Bft) O 0,00 h 0,025 mm 0 W/m 4,8 C 11,9 C 6,0 km/h (2 Bft)
13/03/2007 22:00 11,8 C 60 % 1023,1 hPa 0,0 l/m 3,4 km/h (1 Bft) NO 0,00 h 0,051 mm 0 W/m 4,3 C 11,8 C 5,2 km/h (1 Bft)
13/03/2007 23:00 11,2 C 60 % 1023,3 hPa 0,0 l/m 0,1 km/h (0 Bft) O 0,00 h 0,051 mm 0 W/m 3,7 C 11,2 C 0,6 km/h (0 Bft)
14/03/2007 00:00 11,4 C 57 % 1023,4 hPa 0,0 l/m 3,4 km/h (1 Bft) NO 0,00 h 0,025 mm 0 W/m 3,2 C 11,4 C 4,9 km/h (1 Bft)
14/03/2007 01:00 11,4 C 56 % 1023,4 hPa 0,0 l/m 4,6 km/h (1 Bft) NO 0,00 h 0,051 mm 0 W/m 2,8 C 11,4 C 6,4 km/h (2 Bft)
14/03/2007 02:00 11,9 C 51 % 1023,3 hPa 0,0 l/m 3,9 km/h (1 Bft) O-NO 0,00 h 0,051 mm 0 W/m 2,2 C 11,9 C 5,2 km/h (1 Bft)
14/03/2007 03:00 11,9 C 49 % 1023,3 hPa 0,0 l/m 3,6 km/h (1 Bft) O-NO 0,00 h 0,051 mm 0 W/m 1,6 C 11,9 C 5,3 km/h (1 Bft)
14/03/2007 04:00 11,0 C 53 % 1023,4 hPa 0,0 l/m 1,2 km/h (1 Bft) O 0,00 h 0,051 mm 0 W/m 1,7 C 11,0 C 2,0 km/h (1 Bft)
14/03/2007 05:00 10,4 C 55 % 1023,6 hPa 0,0 l/m 1,0 km/h (0 Bft) O-NO 0,00 h 0,051 mm 0 W/m 1,7 C 10,4 C 1,7 km/h (1 Bft)
14/03/2007 06:00 10,4 C 53 % 1024,1 hPa 0,0 l/m 3,0 km/h (1 Bft) N 0,05 h 0,025 mm 8 W/m 1,3 C 10,4 C 4,7 km/h (1 Bft)
14/03/2007 07:00 10,5 C 56 % 1024,5 hPa 0,0 l/m 0,5 km/h (0 Bft) N 0,18 h 0,025 mm 52 W/m 2,0 C 10,5 C 1,4 km/h (1 Bft)
14/03/2007 08:00 14,5 C 48 % 1025,0 hPa 0,0 l/m 0,1 km/h (0 Bft) N 1,00 h 0,025 mm 256 W/m 3,6 C 14,5 C 0,5 km/h (0 Bft)
14/03/2007 09:00 15,9 C 48 % 1025,5 hPa 0,0 l/m 1,6 km/h (1 Bft) E 1,00 h 0,152 mm 426 W/m 4,7 C 15,9 C 3,4 km/h (1 Bft)
14/03/2007 10:00 17,7 C 39 % 1025,7 hPa 0,0 l/m 3,2 km/h (1 Bft) E 1,00 h 0,254 mm 563 W/m 3,3 C 17,7 C 6,0 km/h (2 Bft)
14/03/2007 11:00 19,3 C 34 % 1025,6 hPa 0,0 l/m 5,7 km/h (1 Bft) E 1,00 h 0,356 mm 654 W/m 3,2 C 19,3 C 8,9 km/h (2 Bft)
14/03/2007 12:00 19,2 C 41 % 1025,5 hPa 0,0 l/m 7,4 km/h (2 Bft) E 1,00 h 0,432 mm 691 W/m 5,7 C 19,2 C 11,2 km/h (2 Bft)
14/03/2007 13:00 19,2 C 35 % 1025,0 hPa 0,0 l/m 5,8 km/h (2 Bft) E-SE 1,00 h 0,457 mm 673 W/m 3,4 C 19,2 C 8,7 km/h (2 Bft)
14/03/2007 14:00 19,7 C 29 % 1024,6 hPa 0,0 l/m 4,2 km/h (1 Bft) E 1,00 h 0,432 mm 592 W/m 1,2 C 19,7 C 8,1 km/h (2 Bft)
14/03/2007 15:00 19,9 C 29 % 1024,4 hPa 0,0 l/m 3,5 km/h (1 Bft) E 1,00 h 0,381 mm 463 W/m 1,6 C 19,9 C 5,9 km/h (2 Bft)
14/03/2007 16:00 19,3 C 31 % 1024,2 hPa 0,0 l/m 0,8 km/h (0 Bft) SE 1,00 h 0,305 mm 300 W/m 1,6 C 19,3 C 2,1 km/h (1 Bft)
14/03/2007 17:00 19,1 C 31 % 1024,1 hPa 0,0 l/m 0,5 km/h (0 Bft) SE 0,90 h 0,178 mm 129 W/m 1,8 C 19,1 C 1,4 km/h (1 Bft)
14/03/2007 18:00 16,8 C 37 % 1024,2 hPa 0,0 l/m 1,2 km/h (1 Bft) SO 0,00 h 0,102 mm 15 W/m 2,1 C 16,8 C 1,8 km/h (1 Bft)
14/03/2007 19:00 15,7 C 37 % 1024,4 hPa 0,0 l/m 3,8 km/h (1 Bft) O 0,00 h 0,025 mm 0 W/m 1,1 C 15,7 C 5,1 km/h (1 Bft)
14/03/2007 20:00 14,2 C 40 % 1024,5 hPa 0,0 l/m 1,5 km/h (1 Bft) NO 0,00 h 0,076 mm 0 W/m 0,7 C 14,2 C 2,6 km/h (1 Bft)
14/03/2007 21:00 13,7 C 41 % 1024,4 hPa 0,0 l/m 3,1 km/h (1 Bft) O-NO 0,00 h 0,051 mm 0 W/m 0,7 C 13,7 C 5,3 km/h (1 Bft)
14/03/2007 22:00 13,1 C 42 % 1024,3 hPa 0,0 l/m 3,3 km/h (1 Bft) NO 0,00 h 0,076 mm 0 W/m 0,6 C 13,1 C 5,9 km/h (2 Bft)
14/03/2007 23:00 13,8 C 40 % 1024,1 hPa 0,0 l/m 1,4 km/h (1 Bft) NO 0,00 h 0,076 mm 0 W/m 0,6 C 13,8 C 2,5 km/h (1 Bft)
15/03/2007 00:00 14,0 C 40 % 1023,8 hPa 0,0 l/m 5,4 km/h (1 Bft) O 0,00 h 0,051 mm 0 W/m 0,7 C 14,0 C 6,8 km/h (2 Bft)
15/03/2007 01:00 13,5 C 43 % 1023,9 hPa 0,0 l/m 5,0 km/h (1 Bft) NO 0,00 h 0,076 mm 0 W/m 1,0 C 13,5 C 6,5 km/h (2 Bft)
15/03/2007 02:00 13,2 C 43 % 1023,9 hPa 0,0 l/m 4,6 km/h (1 Bft) NO 0,00 h 0,076 mm 0 W/m 1,1 C 13,2 C 6,2 km/h (2 Bft)
15/03/2007 03:00 13,0 C 44 % 1023,8 hPa 0,0 l/m 3,2 km/h (1 Bft) NO 0,00 h 0,076 mm 0 W/m 0,9 C 13,0 C 4,6 km/h (1 Bft)
15/03/2007 04:00 12,4 C 45 % 1023,8 hPa 0,0 l/m 5,0 km/h (1 Bft) NO 0,00 h 0,051 mm 0 W/m 0,8 C 12,4 C 7,2 km/h (2 Bft)
15/03/2007 05:00 11,6 C 47 % 1024,0 hPa 0,0 l/m 0,1 km/h (0 Bft) N-NO 0,00 h 0,076 mm 0 W/m 0,6 C 11,6 C 0,5 km/h (0 Bft)
15/03/2007 06:00 10,7 C 50 % 1024,6 hPa 0,0 l/m 2,1 km/h (1 Bft) N-NO 0,03 h 0,051 mm 9 W/m 0,7 C 10,7 C 3,8 km/h (1 Bft)
15/03/2007 07:00 10,9 C 51 % 1024,9 hPa 0,0 l/m 1,3 km/h (1 Bft) N 0,22 h 0,025 mm 57 W/m 1,2 C 10,9 C 2,5 km/h (1 Bft)
15/03/2007 08:00 12,5 C 51 % 1025,2 hPa 0,0 l/m 1,2 km/h (1 Bft) SE 1,00 h 0,051 mm 251 W/m 2,7 C 12,5 C 2,9 km/h (1 Bft)
15/03/2007 09:00 15,2 C 44 % 1025,5 hPa 0,0 l/m 3,5 km/h (1 Bft) E 1,00 h 0,127 mm 419 W/m 3,0 C 15,2 C 6,3 km/h (2 Bft)
15/03/2007 10:00 17,5 C 39 % 1025,5 hPa 0,0 l/m 3,9 km/h (1 Bft) E 1,00 h 0,254 mm 555 W/m 3,5 C 17,5 C 6,4 km/h (2 Bft)
15/03/2007 11:00 18,5 C 39 % 1025,3 hPa 0,0 l/m 5,3 km/h (1 Bft) E 1,00 h 0,330 mm 642 W/m 4,2 C 18,5 C 8,7 km/h (2 Bft)
15/03/2007 12:00 19,0 C 36 % 1024,7 hPa 0,0 l/m 6,6 km/h (2 Bft) E 1,00 h 0,406 mm 681 W/m 3,5 C 19,0 C 10,5 km/h (2 Bft)
15/03/2007 13:00 19,3 C 34 % 1024,0 hPa 0,0 l/m 6,7 km/h (2 Bft) E-SE 1,00 h 0,457 mm 659 W/m 3,2 C 19,3 C 11,1 km/h (2 Bft)
15/03/2007 14:00 18,8 C 36 % 1023,4 hPa 0,0 l/m 4,9 km/h (1 Bft) S 1,00 h 0,432 mm 581 W/m 3,5 C 18,8 C 8,4 km/h (2 Bft)
15/03/2007 15:00 18,5 C 37 % 1022,9 hPa 0,0 l/m 3,7 km/h (1 Bft) SE 1,00 h 0,381 mm 455 W/m 3,4 C 18,5 C 6,7 km/h (2 Bft)
15/03/2007 16:00 18,2 C 37 % 1022,8 hPa 0,0 l/m 2,0 km/h (1 Bft) SE 1,00 h 0,305 mm 287 W/m 3,1 C 18,2 C 3,8 km/h (1 Bft)
15/03/2007 17:00 17,7 C 39 % 1022,4 hPa 0,0 l/m 0,0 km/h (0 Bft) N 0,75 h 0,178 mm 120 W/m 3,7 C 17,7 C 0,4 km/h (0 Bft)
15/03/2007 18:00 15,7 C 46 % 1022,5 hPa 0,0 l/m 0,2 km/h (0 Bft) SE 0,00 h 0,076 mm 20 W/m 4,1 C 15,7 C 0,7 km/h (0 Bft)
15/03/2007 19:00 14,5 C 48 % 1022,4 hPa 0,0 l/m 5,9 km/h (2 Bft) O-NO 0,00 h 0,025 mm 0 W/m 3,7 C 14,5 C 7,8 km/h (2 Bft)
15/03/2007 20:00 13,3 C 53 % 1022,4 hPa 0,0 l/m 2,4 km/h (1 Bft) O-NO 0,00 h 0,076 mm 0 W/m 3,8 C 13,3 C 4,0 km/h (1 Bft)
15/03/2007 21:00 12,9 C 53 % 1022,3 hPa 0,0 l/m 1,4 km/h (1 Bft) O-SO 0,00 h 0,051 mm 0 W/m 3,4 C 12,9 C 2,8 km/h (1 Bft)
15/03/2007 22:00 13,4 C 48 % 1022,1 hPa 0,0 l/m 2,9 km/h (1 Bft) O 0,00 h 0,051 mm 0 W/m 2,7 C 13,4 C 3,9 km/h (1 Bft)
15/03/2007 23:00 12,1 C 54 % 1022,2 hPa 0,0 l/m 0,5 km/h (0 Bft) SE 0,00 h 0,051 mm 0 W/m 2,9 C 12,1 C 1,2 km/h (1 Bft)
16/03/2007 00:00 11,7 C 58 % 1021,9 hPa 0,0 l/m 2,6 km/h (1 Bft) O-SO 0,00 h 0,051 mm 0 W/m 3,6 C 11,7 C 3,7 km/h (1 Bft)
16/03/2007 01:00 11,2 C 61 % 1021,8 hPa 0,0 l/m 3,1 km/h (1 Bft) O-SO 0,00 h 0,051 mm 0 W/m 3,9 C 11,2 C 4,2 km/h (1 Bft)
16/03/2007 02:00 10,2 C 58 % 1021,6 hPa 0,0 l/m 1,7 km/h (1 Bft) NO 0,00 h 0,051 mm 0 W/m 2,4 C 10,2 C 2,6 km/h (1 Bft)
16/03/2007 03:00 10,3 C 57 % 1021,2 hPa 0,0 l/m 3,5 km/h (1 Bft) N-NO 0,00 h 0,025 mm 0 W/m 2,2 C 10,3 C 5,1 km/h (1 Bft)
16/03/2007 04:00 10,0 C 56 % 1021,1 hPa 0,0 l/m 3,0 km/h (1 Bft) O-NO 0,00 h 0,051 mm 0 W/m 1,5 C 9,9 C 4,8 km/h (1 Bft)
16/03/2007 05:00 10,3 C 56 % 1021,3 hPa 0,0 l/m 2,2 km/h (1 Bft) O-NO 0,00 h 0,051 mm 0 W/m 1,8 C 10,3 C 3,5 km/h (1 Bft)
16/03/2007 06:00 10,0 C 55 % 1021,4 hPa 0,0 l/m 3,1 km/h (1 Bft) O-NO 0,05 h 0,051 mm 10 W/m 1,5 C 10,0 C 4,3 km/h (1 Bft)
16/03/2007 07:00 10,3 C 56 % 1021,8 hPa 0,0 l/m 2,7 km/h (1 Bft) O-NO 0,27 h 0,025 mm 62 W/m 1,9 C 10,3 C 4,2 km/h (1 Bft)
16/03/2007 08:00 12,9 C 53 % 1022,2 hPa 0,0 l/m 0,2 km/h (0 Bft) SE 1,00 h 0,051 mm 248 W/m 3,5 C 12,9 C 0,9 km/h (0 Bft)
16/03/2007 09:00 14,3 C 52 % 1022,4 hPa 0,0 l/m 2,8 km/h (1 Bft) S 1,00 h 0,127 mm 415 W/m 4,5 C 14,3 C 4,9 km/h (1 Bft)
16/03/2007 10:00 16,4 C 51 % 1022,5 hPa 0,0 l/m 3,9 km/h (1 Bft) E 1,00 h 0,229 mm 549 W/m 6,2 C 16,4 C 6,4 km/h (2 Bft)
16/03/2007 11:00 17,4 C 56 % 1022,3 hPa 0,0 l/m 5,5 km/h (1 Bft) E 1,00 h 0,330 mm 644 W/m 8,6 C 17,4 C 8,5 km/h (2 Bft)
16/03/2007 12:00 17,4 C 56 % 1022,1 hPa 0,0 l/m 7,5 km/h (2 Bft) E 1,00 h 0,381 mm 679 W/m 8,5 C 17,4 C 10,9 km/h (2 Bft)
16/03/2007 13:00 17,5 C 52 % 1021,6 hPa 0,0 l/m 5,5 km/h (1 Bft) E 1,00 h 0,432 mm 660 W/m 7,5 C 17,5 C 9,3 km/h (2 Bft)
16/03/2007 14:00 17,4 C 49 % 1021,2 hPa 0,0 l/m 4,6 km/h (1 Bft) E-SE 1,00 h 0,406 mm 590 W/m 6,6 C 17,4 C 7,8 km/h (2 Bft)
16/03/2007 15:00 17,3 C 48 % 1020,8 hPa 0,0 l/m 4,6 km/h (1 Bft) E-SE 1,00 h 0,356 mm 468 W/m 6,3 C 17,3 C 7,4 km/h (2 Bft)
16/03/2007 16:00 16,7 C 53 % 1020,7 hPa 0,0 l/m 2,3 km/h (1 Bft) E-SE 1,00 h 0,279 mm 304 W/m 7,1 C 16,7 C 4,6 km/h (1 Bft)
16/03/2007 17:00 15,1 C 60 % 1020,6 hPa 0,0 l/m 1,3 km/h (1 Bft) E-SE 0,85 h 0,178 mm 132 W/m 7,5 C 15,1 C 3,1 km/h (1 Bft)
16/03/2007 18:00 12,9 C 73 % 1020,9 hPa 0,0 l/m 0,3 km/h (0 Bft) E-SE 0,03 h 0,076 mm 18 W/m 8,0 C 12,9 C 1,0 km/h (0 Bft)
16/03/2007 19:00 11,5 C 80 % 1021,0 hPa 0,0 l/m 0,0 km/h (0 Bft) N 0,00 h 0,025 mm 0 W/m 8,1 C 11,5 C 0,2 km/h (0 Bft)
16/03/2007 20:00 11,4 C 78 % 1021,3 hPa 0,0 l/m 2,7 km/h (1 Bft) E-SE 0,00 h 0,025 mm 0 W/m 7,7 C 11,4 C 4,2 km/h (1 Bft)
16/03/2007 21:00 11,1 C 74 % 1021,3 hPa 0,0 l/m 4,5 km/h (1 Bft) O-NO 0,00 h 0,025 mm 0 W/m 6,8 C 11,1 C 6,3 km/h (2 Bft)
16/03/2007 22:00 11,6 C 63 % 1021,2 hPa 0,0 l/m 3,9 km/h (1 Bft) O 0,00 h 0,025 mm 0 W/m 4,9 C 11,6 C 5,4 km/h (1 Bft)
16/03/2007 23:00 11,3 C 61 % 1021,0 hPa 0,0 l/m 3,6 km/h (1 Bft) NO 0,00 h 0,051 mm 0 W/m 4,1 C 11,3 C 5,6 km/h (1 Bft)
17/03/2007 00:00 11,1 C 60 % 1021,0 hPa 0,0 l/m 2,1 km/h (1 Bft) NO 0,00 h 0,051 mm 0 W/m 3,6 C 11,1 C 3,6 km/h (1 Bft)
17/03/2007 01:00 11,4 C 58 % 1021,1 hPa 0,0 l/m 0,5 km/h (0 Bft) NO 0,00 h 0,051 mm 0 W/m 3,4 C 11,4 C 1,2 km/h (1 Bft)
17/03/2007 02:00 11,4 C 57 % 1020,9 hPa 0,0 l/m 2,6 km/h (1 Bft) O 0,00 h 0,025 mm 0 W/m 3,3 C 11,4 C 3,5 km/h (1 Bft)
17/03/2007 03:00 10,7 C 60 % 1020,5 hPa 0,0 l/m 1,9 km/h (1 Bft) O-NO 0,00 h 0,051 mm 0 W/m 3,3 C 10,7 C 2,9 km/h (1 Bft)
17/03/2007 04:00 9,9 C 63 % 1020,3 hPa 0,0 l/m 3,3 km/h (1 Bft) NO 0,00 h 0,025 mm 0 W/m 3,2 C 9,8 C 4,7 km/h (1 Bft)
17/03/2007 05:00 10,0 C 65 % 1020,3 hPa 0,0 l/m 3,5 km/h (1 Bft) N-NO 0,00 h 0,025 mm 0 W/m 3,7 C 9,9 C 5,1 km/h (1 Bft)
17/03/2007 06:00 10,5 C 63 % 1020,4 hPa 0,0 l/m 1,9 km/h (1 Bft) NO 0,13 h 0,025 mm 12 W/m 3,7 C 10,5 C 3,0 km/h (1 Bft)
17/03/2007 07:00 10,6 C 64 % 1020,5 hPa 0,0 l/m 0,2 km/h (0 Bft) O-NO 0,22 h 0,025 mm 64 W/m 4,1 C 10,6 C 0,4 km/h (0 Bft)
17/03/2007 08:00 12,3 C 60 % 1020,8 hPa 0,0 l/m 0,1 km/h (0 Bft) O-NO 1,00 h 0,025 mm 237 W/m 4,7 C 12,3 C 0,7 km/h (0 Bft)
17/03/2007 09:00 15,0 C 55 % 1020,9 hPa 0,0 l/m 1,0 km/h (0 Bft) N-NE 1,00 h 0,127 mm 407 W/m 6,0 C 15,0 C 2,4 km/h (1 Bft)
17/03/2007 10:00 16,6 C 53 % 1020,7 hPa 0,0 l/m 5,6 km/h (1 Bft) E 1,00 h 0,229 mm 543 W/m 7,1 C 16,6 C 9,3 km/h (2 Bft)
17/03/2007 11:00 16,5 C 62 % 1020,7 hPa 0,0 l/m 9,2 km/h (2 Bft) E 1,00 h 0,330 mm 631 W/m 9,2 C 16,5 C 14,0 km/h (3 Bft)
17/03/2007 12:00 16,5 C 63 % 1020,4 hPa 0,0 l/m 8,6 km/h (2 Bft) E 1,00 h 0,381 mm 667 W/m 9,4 C 16,5 C 12,8 km/h (3 Bft)
17/03/2007 13:00 16,9 C 62 % 1019,9 hPa 0,0 l/m 9,3 km/h (2 Bft) E 1,00 h 0,406 mm 639 W/m 9,7 C 16,9 C 14,1 km/h (3 Bft)
17/03/2007 14:00 16,6 C 69 % 1019,4 hPa 0,0 l/m 8,5 km/h (2 Bft) E 1,00 h 0,406 mm 549 W/m 10,9 C 16,6 C 13,0 km/h (3 Bft)
17/03/2007 15:00 16,0 C 76 % 1019,1 hPa 0,0 l/m 6,9 km/h (2 Bft) E 0,98 h 0,330 mm 400 W/m 11,7 C 16,0 C 10,4 km/h (2 Bft)
17/03/2007 16:00 15,4 C 80 % 1019,0 hPa 0,0 l/m 4,6 km/h (1 Bft) E-SE 0,88 h 0,229 mm 239 W/m 12,0 C 15,4 C 7,0 km/h (2 Bft)
17/03/2007 17:00 14,1 C 86 % 1018,7 hPa 0,0 l/m 4,3 km/h (1 Bft) E 0,25 h 0,127 mm 102 W/m 11,8 C 14,1 C 6,1 km/h (2 Bft)
17/03/2007 18:00 12,9 C 90 % 1018,6 hPa 0,0 l/m 0,9 km/h (0 Bft) E 0,02 h 0,076 mm 21 W/m 11,4 C 12,9 C 2,0 km/h (1 Bft)
17/03/2007 19:00 12,0 C 93 % 1018,5 hPa 0,0 l/m 0,0 km/h (0 Bft) N 0,00 h 0,000 mm 0 W/m 10,9 C 12,0 C 0,3 km/h (0 Bft)
17/03/2007 20:00 11,5 C 94 % 1018,5 hPa 0,0 l/m 0,0 km/h (0 Bft) N 0,00 h 0,000 mm 0 W/m 10,5 C 11,5 C 0,0 km/h (0 Bft)
17/03/2007 21:00 11,2 C 94 % 1018,2 hPa 0,0 l/m 1,2 km/h (1 Bft) E-NE 0,00 h 0,000 mm 0 W/m 10,3 C 11,2 C 2,3 km/h (1 Bft)
17/03/2007 22:00 10,8 C 95 % 1017,9 hPa 0,0 l/m 1,7 km/h (1 Bft) N 0,00 h 0,000 mm 0 W/m 10,0 C 10,8 C 3,2 km/h (1 Bft)
17/03/2007 23:00 10,4 C 95 % 1017,6 hPa 0,0 l/m 0,9 km/h (0 Bft) N-NO 0,00 h 0,000 mm 0 W/m 9,6 C 10,4 C 2,1 km/h (1 Bft)
18/03/2007 00:00 10,2 C 95 % 1017,6 hPa 0,0 l/m 0,7 km/h (0 Bft) N 0,00 h 0,000 mm 0 W/m 9,5 C 10,2 C 1,8 km/h (1 Bft)
18/03/2007 01:00 10,3 C 95 % 1017,4 hPa 0,0 l/m 0,4 km/h (0 Bft) N 0,00 h 0,000 mm 0 W/m 9,6 C 10,3 C 1,2 km/h (1 Bft)
18/03/2007 02:00 10,3 C 95 % 1017,0 hPa 0,0 l/m 0,5 km/h (0 Bft) N-NE 0,00 h 0,000 mm 0 W/m 9,6 C 10,3 C 1,1 km/h (1 Bft)
18/03/2007 03:00 10,3 C 95 % 1016,7 hPa 0,0 l/m 0,6 km/h (0 Bft) N-NE 0,00 h 0,000 mm 0 W/m 9,6 C 10,3 C 1,7 km/h (1 Bft)
18/03/2007 04:00 10,2 C 96 % 1016,4 hPa 0,0 l/m 1,1 km/h (1 Bft) N-NE 0,00 h 0,000 mm 0 W/m 9,6 C 10,2 C 2,4 km/h (1 Bft)
18/03/2007 05:00 10,2 C 96 % 1016,1 hPa 0,0 l/m 1,5 km/h (1 Bft) N 0,00 h 0,000 mm 0 W/m 9,6 C 10,2 C 3,3 km/h (1 Bft)
18/03/2007 06:00 9,6 C 95 % 1015,9 hPa 0,0 l/m 2,4 km/h (1 Bft) NO 0,03 h 0,000 mm 11 W/m 8,8 C 9,6 C 4,3 km/h (1 Bft)
18/03/2007 07:00 9,1 C 95 % 1015,8 hPa 0,0 l/m 5,5 km/h (1 Bft) O-NO 0,18 h 0,000 mm 65 W/m 8,2 C 8,5 C 7,8 km/h (2 Bft)
18/03/2007 08:00 11,7 C 84 % 1015,7 hPa 0,0 l/m 1,4 km/h (1 Bft) O-NO 1,00 h 0,025 mm 222 W/m 9,1 C 11,6 C 2,7 km/h (1 Bft)
18/03/2007 09:00 13,5 C 78 % 1015,4 hPa 0,0 l/m 3,1 km/h (1 Bft) E 1,00 h 0,102 mm 407 W/m 9,7 C 13,5 C 5,6 km/h (1 Bft)
18/03/2007 10:00 13,8 C 77 % 1015,1 hPa 0,0 l/m 5,7 km/h (1 Bft) S 0,42 h 0,229 mm 318 W/m 9,7 C 13,8 C 8,8 km/h (2 Bft)
18/03/2007 11:00 14,4 C 74 % 1014,3 hPa 0,0 l/m 7,4 km/h (2 Bft) S 0,42 h 0,178 mm 384 W/m 9,9 C 14,4 C 11,4 km/h (2 Bft)
18/03/2007 12:00 14,6 C 77 % 1013,2 hPa 0,0 l/m 6,7 km/h (2 Bft) E 0,17 h 0,229 mm 328 W/m 10,5 C 14,6 C 11,7 km/h (2 Bft)
18/03/2007 13:00 14,9 C 72 % 1011,8 hPa 0,0 l/m 6,4 km/h (2 Bft) SE 0,03 h 0,203 mm 302 W/m 10,0 C 14,9 C 10,9 km/h (2 Bft)
18/03/2007 14:00 14,9 C 69 % 1010,6 hPa 0,0 l/m 8,6 km/h (2 Bft) S 0,75 h 0,178 mm 472 W/m 9,2 C 14,9 C 14,2 km/h (3 Bft)
18/03/2007 15:00 14,9 C 70 % 1009,4 hPa 0,0 l/m 6,1 km/h (2 Bft) S-SE 1,00 h 0,279 mm 447 W/m 9,4 C 14,9 C 9,8 km/h (2 Bft)
18/03/2007 16:00 15,3 C 65 % 1008,1 hPa 0,0 l/m 4,3 km/h (1 Bft) E 1,00 h 0,254 mm 292 W/m 8,8 C 15,3 C 7,2 km/h (2 Bft)
18/03/2007 17:00 14,7 C 68 % 1006,9 hPa 0,0 l/m 3,4 km/h (1 Bft) E-NE 0,88 h 0,178 mm 133 W/m 8,9 C 14,7 C 5,1 km/h (1 Bft)
18/03/2007 18:00 12,3 C 75 % 1005,9 hPa 0,0 l/m 2,3 km/h (1 Bft) E-NE 0,00 h 0,076 mm 14 W/m 8,0 C 12,3 C 3,9 km/h (1 Bft)
18/03/2007 19:00 10,9 C 80 % 1004,9 hPa 0,0 l/m 0,5 km/h (0 Bft) NE 0,00 h 0,025 mm 0 W/m 7,6 C 10,9 C 1,0 km/h (0 Bft)
18/03/2007 20:00 10,4 C 84 % 1003,7 hPa 0,0 l/m 3,3 km/h (1 Bft) O-SO 0,00 h 0,025 mm 0 W/m 7,8 C 10,4 C 4,8 km/h (1 Bft)
18/03/2007 21:00 12,6 C 71 % 1002,2 hPa 0,0 l/m 20,6 km/h (4 Bft) SO 0,00 h 0,025 mm 0 W/m 7,3 C 12,6 C 26,1 km/h (4 Bft)
18/03/2007 22:00 13,7 C 61 % 1000,9 hPa 0,0 l/m 26,2 km/h (4 Bft) SO 0,00 h 0,076 mm 0 W/m 6,3 C 13,7 C 33,3 km/h (5 Bft)
18/03/2007 23:00 14,0 C 56 % 999,8 hPa 0,0 l/m 25,3 km/h (4 Bft) SO 0,00 h 0,127 mm 0 W/m 5,3 C 14,0 C 31,8 km/h (5 Bft)
Min-Date _ 12/03/07 12/03/07 18/03/07 - 12/03/07 - - - - 12/03/07 12/03/07 12/03/07
_ Min-Heure 06:34 14:05 23:45 - 02:09 - - - - 00:11 06:38 07:30
Minimum _ 8,2 C 25 % 999,5 hPa - 0,0 km/h (0 Bft) - - - - -3,7 C 6,5 C 0,0 km/h (0 Bft)
Max-Date _ 14/03/07 18/03/07 14/03/07 12/03/07 18/03/07 - 12/03/07 12/03/07 12/03/07 17/03/07 14/03/07 18/03/07
_ Max-Heure 15:04 02:20 10:15 00:00 22:12 - 07:00 12:00 11:46 16:41 15:04 22:14
Maximum _ 20,3 C 96 % 1025,7 hPa 0,0 l/m 35,4 km/h
SO (5 Bft)
- 0,02 h 0,508 mm 842 W/m 12,3 C 20,3 C 46,7 km/h
SO (6 Bft)
Moyenne _ 13,5 C 55 % 1021,0 hPa #0,0 l/m 4,2 km/h (1 Bft) O-NO #64:45 h #23,488 mm 345 W/m 4,0 C 13,4 C 6,4 km/h (2 Bft)
Roquefort les pins